Disclaimer

Please do not use the information listed here in-flight or in-navigation, as they are not provided to us by the airports but are provided by volunteers, so they might be outdated.

Search


Regions


Airport information page

No radio frequency information is available.

Airport informations:
Latitude: 58° 30' 49.83" N
Longitude: 014° 30' 25.63" E
Elevation: 308 feet - 94 meters
Operating hours: Remarks
Operating agency: Military
Timezone: UTC+1(+2DT) - Last Sunday in March to last Sunday in October
Fuel: Unknown fuel type or whether there is any fuel.

Runway information:
06/24 - 7472 x 131 feet< - >2277 x 40 meters

Recent METARs:
ESIA 160520Z AUTO 22009KT 9999 NCD 07/05 Q1033
ESIA 160550Z AUTO 23007KT 9999 FEW220/// 06/04 Q1034
ESIA 160620Z AUTO 22007KT 9999 BKN220/// 06/04 Q1034

Airport on the map: